sensor_id;sensor_type;location;lat;lon;timestamp;P1;durP1;ratioP1;P2;durP2;ratioP2
72422;SDS011;60413;55.658;37.498;2023-03-16T00:44:06;20.38;;;10.23;;
72422;SDS011;60413;55.658;37.498;2023-03-16T00:47:10;21.52;;;11.25;;
72422;SDS011;60413;55.658;37.498;2023-03-16T02:09:40;23.55;;;10.90;;
72422;SDS011;60413;55.658;37.498;2023-03-16T02:12:24;21.27;;;9.82;;
72422;SDS011;60413;55.658;37.498;2023-03-16T02:15:02;19.40;;;10.63;;
72422;SDS011;60413;55.658;37.498;2023-03-16T02:17:54;21.90;;;11.13;;
72422;SDS011;60413;55.658;37.498;2023-03-16T02:24:20;25.42;;;13.68;;
72422;SDS011;60413;55.658;37.498;2023-03-16T02:27:42;25.90;;;12.90;;
72422;SDS011;60413;55.658;37.498;2023-03-16T02:30:18;15.05;;;8.70;;
72422;SDS011;60413;55.658;37.498;2023-03-16T02:32:55;22.60;;;11.65;;
72422;SDS011;60413;55.658;37.498;2023-03-16T02:35:28;23.38;;;12.50;;
72422;SDS011;60413;55.658;37.498;2023-03-16T02:37:56;26.88;;;12.15;;
72422;SDS011;60413;55.658;37.498;2023-03-16T02:40:29;23.67;;;11.45;;
72422;SDS011;60413;55.658;37.498;2023-03-16T02:43:14;25.20;;;12.02;;
72422;SDS011;60413;55.658;37.498;2023-03-16T02:46:04;22.88;;;12.25;;
72422;SDS011;60413;55.658;37.498;2023-03-16T02:51:49;24.38;;;10.82;;
72422;SDS011;60413;55.658;37.498;2023-03-16T02:54:31;24.23;;;12.65;;
72422;SDS011;60413;55.658;37.498;2023-03-16T02:57:09;26.17;;;9.52;;
72422;SDS011;60413;55.658;37.498;2023-03-16T02:59:52;22.50;;;9.88;;
72422;SDS011;60413;55.658;37.498;2023-03-16T03:08:17;23.50;;;13.10;;
72422;SDS011;60413;55.658;37.498;2023-03-16T03:10:56;23.13;;;10.98;;
72422;SDS011;60413;55.658;37.498;2023-03-16T03:13:46;21.55;;;11.40;;
72422;SDS011;60413;55.658;37.498;2023-03-16T03:16:30;24.60;;;12.35;;
72422;SDS011;60413;55.658;37.498;2023-03-16T03:19:00;25.20;;;11.13;;
72422;SDS011;60413;55.658;37.498;2023-03-16T03:24:34;29.33;;;13.10;;
72422;SDS011;60413;55.658;37.498;2023-03-16T03:27:06;24.92;;;13.32;;
72422;SDS011;60413;55.658;37.498;2023-03-16T03:29:38;32.08;;;13.60;;
72422;SDS011;60413;55.658;37.498;2023-03-16T03:32:11;24.33;;;12.37;;
72422;SDS011;60413;55.658;37.498;2023-03-16T03:35:02;23.73;;;13.00;;
72422;SDS011;60413;55.658;37.498;2023-03-16T03:37:30;24.45;;;12.63;;
72422;SDS011;60413;55.658;37.498;2023-03-16T03:39:56;28.90;;;12.73;;
72422;SDS011;60413;55.658;37.498;2023-03-16T03:42:25;27.85;;;14.05;;
72422;SDS011;60413;55.658;37.498;2023-03-16T03:44:54;28.27;;;13.23;;
72422;SDS011;60413;55.658;37.498;2023-03-16T03:47:20;27.98;;;13.45;;
72422;SDS011;60413;55.658;37.498;2023-03-16T03:50:02;29.45;;;12.75;;
72422;SDS011;60413;55.658;37.498;2023-03-16T03:52:45;28.20;;;13.68;;
72422;SDS011;60413;55.658;37.498;2023-03-16T04:07:09;24.27;;;12.10;;
72422;SDS011;60413;55.658;37.498;2023-03-16T04:10:00;25.48;;;13.20;;
72422;SDS011;60413;55.658;37.498;2023-03-16T04:13:15;27.48;;;12.60;;
72422;SDS011;60413;55.658;37.498;2023-03-16T04:16:05;23.40;;;10.68;;
72422;SDS011;60413;55.658;37.498;2023-03-16T04:18:42;27.85;;;12.30;;
72422;SDS011;60413;55.658;37.498;2023-03-16T04:21:31;27.50;;;12.27;;
72422;SDS011;60413;55.658;37.498;2023-03-16T04:24:36;33.13;;;13.73;;
72422;SDS011;60413;55.658;37.498;2023-03-16T04:27:15;30.63;;;14.35;;
72422;SDS011;60413;55.658;37.498;2023-03-16T04:32:37;27.88;;;12.32;;
72422;SDS011;60413;55.658;37.498;2023-03-16T04:35:06;25.60;;;12.40;;
72422;SDS011;60413;55.658;37.498;2023-03-16T04:38:02;28.35;;;13.85;;
72422;SDS011;60413;55.658;37.498;2023-03-16T04:40:48;29.02;;;12.85;;
72422;SDS011;60413;55.658;37.498;2023-03-16T04:43:19;24.05;;;10.88;;
72422;SDS011;60413;55.658;37.498;2023-03-16T04:45:53;36.22;;;14.48;;
72422;SDS011;60413;55.658;37.498;2023-03-16T04:48:27;28.35;;;12.23;;
72422;SDS011;60413;55.658;37.498;2023-03-16T04:53:46;33.05;;;12.73;;
72422;SDS011;60413;55.658;37.498;2023-03-16T04:56:34;28.52;;;14.30;;
72422;SDS011;60413;55.658;37.498;2023-03-16T05:02:32;32.40;;;14.07;;
72422;SDS011;60413;55.658;37.498;2023-03-16T05:05:45;26.55;;;12.35;;
72422;SDS011;60413;55.658;37.498;2023-03-16T05:09:00;35.00;;;13.52;;
72422;SDS011;60413;55.658;37.498;2023-03-16T05:14:25;26.60;;;12.30;;
72422;SDS011;60413;55.658;37.498;2023-03-16T05:17:31;27.10;;;12.45;;
72422;SDS011;60413;55.658;37.498;2023-03-16T05:19:58;29.88;;;15.02;;
72422;SDS011;60413;55.658;37.498;2023-03-16T05:22:25;31.27;;;13.90;;
72422;SDS011;60413;55.658;37.498;2023-03-16T05:25:44;17.10;;;7.13;;
72422;SDS011;60413;55.658;37.498;2023-03-16T05:31:18;21.55;;;10.15;;
72422;SDS011;60413;55.658;37.498;2023-03-16T05:33:57;17.77;;;9.25;;
72422;SDS011;60413;55.658;37.498;2023-03-16T05:45:32;34.17;;;14.43;;
72422;SDS011;60413;55.658;37.498;2023-03-16T05:48:29;30.23;;;13.60;;
72422;SDS011;60413;55.658;37.498;2023-03-16T05:58:24;30.00;;;14.20;;
72422;SDS011;60413;55.658;37.498;2023-03-16T06:01:13;26.00;;;12.93;;
72422;SDS011;60413;55.658;37.498;2023-03-16T06:03:52;25.40;;;11.35;;
72422;SDS011;60413;55.658;37.498;2023-03-16T06:09:24;20.27;;;10.18;;
72422;SDS011;60413;55.658;37.498;2023-03-16T06:12:35;31.10;;;12.13;;
72422;SDS011;60413;55.658;37.498;2023-03-16T06:15:25;24.65;;;13.30;;
72422;SDS011;60413;55.658;37.498;2023-03-16T06:18:09;28.38;;;12.93;;
72422;SDS011;60413;55.658;37.498;2023-03-16T06:20:56;29.15;;;13.57;;
72422;SDS011;60413;55.658;37.498;2023-03-16T06:23:59;26.58;;;12.18;;
72422;SDS011;60413;55.658;37.498;2023-03-16T06:26:36;26.10;;;13.55;;
72422;SDS011;60413;55.658;37.498;2023-03-16T06:29:44;23.35;;;11.27;;
72422;SDS011;60413;55.658;37.498;2023-03-16T06:32:54;23.55;;;12.20;;
72422;SDS011;60413;55.658;37.498;2023-03-16T06:35:51;22.35;;;10.55;;
72422;SDS011;60413;55.658;37.498;2023-03-16T06:59:54;23.35;;;10.98;;
72422;SDS011;60413;55.658;37.498;2023-03-16T07:03:07;22.77;;;10.65;;
72422;SDS011;60413;55.658;37.498;2023-03-16T07:15:05;19.60;;;10.25;;
72422;SDS011;60413;55.658;37.498;2023-03-16T07:23:49;18.58;;;10.95;;
72422;SDS011;60413;55.658;37.498;2023-03-16T07:32:53;22.40;;;12.05;;
72422;SDS011;60413;55.658;37.498;2023-03-16T07:38:12;21.92;;;10.18;;
72422;SDS011;60413;55.658;37.498;2023-03-16T07:47:16;21.38;;;10.73;;
72422;SDS011;60413;55.658;37.498;2023-03-16T07:50:10;22.63;;;11.13;;
72422;SDS011;60413;55.658;37.498;2023-03-16T07:52:48;18.30;;;9.75;;
72422;SDS011;60413;55.658;37.498;2023-03-16T07:55:29;19.05;;;10.05;;
72422;SDS011;60413;55.658;37.498;2023-03-16T07:57:59;20.88;;;10.50;;
72422;SDS011;60413;55.658;37.498;2023-03-16T08:00:48;23.17;;;11.27;;
72422;SDS011;60413;55.658;37.498;2023-03-16T08:03:28;23.60;;;11.57;;
72422;SDS011;60413;55.658;37.498;2023-03-16T08:05:54;21.73;;;11.15;;
72422;SDS011;60413;55.658;37.498;2023-03-16T08:08:34;22.20;;;11.32;;
72422;SDS011;60413;55.658;37.498;2023-03-16T08:11:33;25.33;;;12.15;;
72422;SDS011;60413;55.658;37.498;2023-03-16T08:14:24;21.42;;;10.93;;
72422;SDS011;60413;55.658;37.498;2023-03-16T08:21:08;20.63;;;11.77;;
72422;SDS011;60413;55.658;37.498;2023-03-16T08:23:42;21.23;;;10.50;;
72422;SDS011;60413;55.658;37.498;2023-03-16T08:26:23;21.67;;;11.35;;
72422;SDS011;60413;55.658;37.498;2023-03-16T08:29:10;22.70;;;11.88;;
72422;SDS011;60413;55.658;37.498;2023-03-16T08:31:48;23.15;;;11.82;;
72422;SDS011;60413;55.658;37.498;2023-03-16T08:34:49;22.23;;;11.48;;
72422;SDS011;60413;55.658;37.498;2023-03-16T08:37:26;24.80;;;12.05;;
72422;SDS011;60413;55.658;37.498;2023-03-16T08:39:59;24.60;;;12.50;;
72422;SDS011;60413;55.658;37.498;2023-03-16T08:42:40;27.02;;;13.35;;
72422;SDS011;60413;55.658;37.498;2023-03-16T08:45:29;26.00;;;12.65;;
72422;SDS011;60413;55.658;37.498;2023-03-16T08:48:01;25.35;;;12.93;;
72422;SDS011;60413;55.658;37.498;2023-03-16T08:50:50;22.17;;;11.45;;
72422;SDS011;60413;55.658;37.498;2023-03-16T08:53:28;23.55;;;12.23;;
72422;SDS011;60413;55.658;37.498;2023-03-16T08:56:05;31.55;;;12.45;;
72422;SDS011;60413;55.658;37.498;2023-03-16T08:58:37;24.50;;;12.82;;
72422;SDS011;60413;55.658;37.498;2023-03-16T09:01:06;23.90;;;12.60;;
72422;SDS011;60413;55.658;37.498;2023-03-16T09:04:52;24.15;;;12.73;;
72422;SDS011;60413;55.658;37.498;2023-03-16T09:11:11;24.88;;;12.50;;
72422;SDS011;60413;55.658;37.498;2023-03-16T09:14:18;24.27;;;13.63;;
72422;SDS011;60413;55.658;37.498;2023-03-16T09:44:02;32.83;;;13.27;;
72422;SDS011;60413;55.658;37.498;2023-03-16T09:46:48;30.65;;;14.13;;
72422;SDS011;60413;55.658;37.498;2023-03-16T09:49:42;30.58;;;13.68;;
72422;SDS011;60413;55.658;37.498;2023-03-16T09:53:11;25.27;;;12.70;;
72422;SDS011;60413;55.658;37.498;2023-03-16T09:56:09;27.65;;;12.57;;
72422;SDS011;60413;55.658;37.498;2023-03-16T09:59:18;25.45;;;11.73;;
72422;SDS011;60413;55.658;37.498;2023-03-16T10:05:51;27.75;;;13.63;;
72422;SDS011;60413;55.658;37.498;2023-03-16T10:08:48;23.58;;;12.15;;
72422;SDS011;60413;55.658;37.498;2023-03-16T10:11:46;24.55;;;12.30;;
72422;SDS011;60413;55.658;37.498;2023-03-16T10:14:29;28.60;;;13.57;;
72422;SDS011;60413;55.658;37.498;2023-03-16T10:17:30;33.47;;;15.25;;
72422;SDS011;60413;55.658;37.498;2023-03-16T10:20:49;24.23;;;11.93;;
72422;SDS011;60413;55.658;37.498;2023-03-16T10:23:49;26.08;;;12.45;;
72422;SDS011;60413;55.658;37.498;2023-03-16T10:26:27;24.40;;;11.80;;
72422;SDS011;60413;55.658;37.498;2023-03-16T10:29:10;26.10;;;12.48;;
72422;SDS011;60413;55.658;37.498;2023-03-16T10:32:04;25.60;;;12.93;;
72422;SDS011;60413;55.658;37.498;2023-03-16T10:41:25;22.35;;;12.10;;
72422;SDS011;60413;55.658;37.498;2023-03-16T10:44:18;26.73;;;12.73;;
72422;SDS011;60413;55.658;37.498;2023-03-16T10:47:02;25.98;;;13.38;;
72422;SDS011;60413;55.658;37.498;2023-03-16T10:50:25;29.10;;;13.02;;
72422;SDS011;60413;55.658;37.498;2023-03-16T10:53:29;24.05;;;11.82;;
72422;SDS011;60413;55.658;37.498;2023-03-16T10:56:47;22.15;;;12.35;;
72422;SDS011;60413;55.658;37.498;2023-03-16T10:59:49;23.40;;;12.38;;
72422;SDS011;60413;55.658;37.498;2023-03-16T11:02:41;28.92;;;12.75;;
72422;SDS011;60413;55.658;37.498;2023-03-16T11:05:30;26.30;;;13.07;;
72422;SDS011;60413;55.658;37.498;2023-03-16T11:08:12;27.88;;;13.45;;
72422;SDS011;60413;55.658;37.498;2023-03-16T11:11:17;24.50;;;12.23;;
72422;SDS011;60413;55.658;37.498;2023-03-16T11:14:13;29.85;;;12.90;;
72422;SDS011;60413;55.658;37.498;2023-03-16T11:17:09;24.42;;;12.93;;
72422;SDS011;60413;55.658;37.498;2023-03-16T11:20:39;23.50;;;12.52;;
72422;SDS011;60413;55.658;37.498;2023-03-16T11:24:02;26.67;;;13.35;;
72422;SDS011;60413;55.658;37.498;2023-03-16T11:34:04;28.20;;;14.57;;
72422;SDS011;60413;55.658;37.498;2023-03-16T11:41:03;28.70;;;13.85;;
72422;SDS011;60413;55.658;37.498;2023-03-16T11:44:06;27.98;;;13.98;;
72422;SDS011;60413;55.658;37.498;2023-03-16T11:58:26;26.15;;;14.32;;
72422;SDS011;60413;55.658;37.498;2023-03-16T12:08:41;34.25;;;15.25;;
72422;SDS011;60413;55.658;37.498;2023-03-16T12:11:07;32.00;;;14.50;;
72422;SDS011;60413;55.658;37.498;2023-03-16T12:23:05;29.25;;;14.77;;
72422;SDS011;60413;55.658;37.498;2023-03-16T12:26:13;31.05;;;14.45;;
72422;SDS011;60413;55.658;37.498;2023-03-16T12:28:53;27.85;;;14.38;;
72422;SDS011;60413;55.658;37.498;2023-03-16T12:31:47;27.75;;;14.63;;
72422;SDS011;60413;55.658;37.498;2023-03-16T12:39:05;34.90;;;15.80;;
72422;SDS011;60413;55.658;37.498;2023-03-16T12:49:51;36.35;;;17.63;;
72422;SDS011;60413;55.658;37.498;2023-03-16T13:11:54;42.28;;;19.05;;
72422;SDS011;60413;55.658;37.498;2023-03-16T13:39:18;34.42;;;16.85;;
72422;SDS011;60413;55.658;37.498;2023-03-16T13:42:29;40.47;;;18.77;;
72422;SDS011;60413;55.658;37.498;2023-03-16T13:59:29;50.50;;;20.45;;
72422;SDS011;60413;55.658;37.498;2023-03-16T14:23:16;49.03;;;21.25;;
72422;SDS011;60413;55.658;37.498;2023-03-16T14:30:23;49.28;;;20.73;;
72422;SDS011;60413;55.658;37.498;2023-03-16T14:33:58;56.63;;;21.42;;
72422;SDS011;60413;55.658;37.498;2023-03-16T14:46:31;53.70;;;23.50;;
72422;SDS011;60413;55.658;37.498;2023-03-16T14:50:05;50.08;;;22.05;;
72422;SDS011;60413;55.658;37.498;2023-03-16T14:52:38;57.47;;;23.33;;
72422;SDS011;60413;55.658;37.498;2023-03-16T15:01:39;60.28;;;24.83;;
72422;SDS011;60413;55.658;37.498;2023-03-16T15:04:37;58.58;;;25.88;;
72422;SDS011;60413;55.658;37.498;2023-03-16T15:07:36;53.75;;;21.40;;
72422;SDS011;60413;55.658;37.498;2023-03-16T15:11:07;62.13;;;23.88;;
72422;SDS011;60413;55.658;37.498;2023-03-16T15:14:54;53.88;;;20.90;;
72422;SDS011;60413;55.658;37.498;2023-03-16T15:25:23;46.30;;;18.83;;
72422;SDS011;60413;55.658;37.498;2023-03-16T15:28:48;42.80;;;18.50;;
72422;SDS011;60413;55.658;37.498;2023-03-16T15:40:56;49.60;;;19.10;;
72422;SDS011;60413;55.658;37.498;2023-03-16T15:44:12;42.70;;;17.55;;
72422;SDS011;60413;55.658;37.498;2023-03-16T15:50:19;37.00;;;15.02;;
72422;SDS011;60413;55.658;37.498;2023-03-16T15:53:24;43.15;;;15.48;;
72422;SDS011;60413;55.658;37.498;2023-03-16T15:56:25;42.72;;;17.38;;
72422;SDS011;60413;55.658;37.498;2023-03-16T16:29:30;37.83;;;15.57;;
72422;SDS011;60413;55.658;37.498;2023-03-16T16:32:23;35.95;;;14.68;;
72422;SDS011;60413;55.658;37.498;2023-03-16T16:38:15;35.03;;;14.32;;
72422;SDS011;60413;55.658;37.498;2023-03-16T16:40:47;41.75;;;16.67;;
72422;SDS011;60413;55.658;37.498;2023-03-16T16:43:40;45.53;;;17.52;;
72422;SDS011;60413;55.658;37.498;2023-03-16T16:46:19;31.38;;;14.45;;
72422;SDS011;60413;55.658;37.498;2023-03-16T16:48:58;11.52;;;5.72;;
72422;SDS011;60413;55.658;37.498;2023-03-16T16:51:34;48.80;;;18.67;;
72422;SDS011;60413;55.658;37.498;2023-03-16T16:54:00;41.22;;;16.52;;
72422;SDS011;60413;55.658;37.498;2023-03-16T16:56:33;49.85;;;18.48;;
72422;SDS011;60413;55.658;37.498;2023-03-16T16:59:45;47.28;;;18.70;;
72422;SDS011;60413;55.658;37.498;2023-03-16T17:02:45;50.13;;;19.67;;
72422;SDS011;60413;55.658;37.498;2023-03-16T17:06:13;45.97;;;17.60;;
72422;SDS011;60413;55.658;37.498;2023-03-16T17:13:51;41.10;;;16.00;;
72422;SDS011;60413;55.658;37.498;2023-03-16T17:30:08;37.17;;;16.25;;
72422;SDS011;60413;55.658;37.498;2023-03-16T17:41:07;39.40;;;15.75;;
72422;SDS011;60413;55.658;37.498;2023-03-16T18:37:37;33.90;;;13.60;;
72422;SDS011;60413;55.658;37.498;2023-03-16T18:40:51;35.67;;;14.52;;
72422;SDS011;60413;55.658;37.498;2023-03-16T18:43:42;42.10;;;17.65;;
72422;SDS011;60413;55.658;37.498;2023-03-16T18:46:33;35.40;;;14.43;;
72422;SDS011;60413;55.658;37.498;2023-03-16T18:49:27;37.55;;;14.15;;
72422;SDS011;60413;55.658;37.498;2023-03-16T18:52:17;27.48;;;11.23;;
72422;SDS011;60413;55.658;37.498;2023-03-16T18:54:52;36.92;;;13.77;;
72422;SDS011;60413;55.658;37.498;2023-03-16T18:57:29;29.52;;;13.50;;
72422;SDS011;60413;55.658;37.498;2023-03-16T19:04:58;24.63;;;11.70;;
72422;SDS011;60413;55.658;37.498;2023-03-16T19:08:39;23.85;;;9.40;;
72422;SDS011;60413;55.658;37.498;2023-03-16T19:21:29;36.72;;;16.50;;
72422;SDS011;60413;55.658;37.498;2023-03-16T19:24:59;33.78;;;14.15;;
72422;SDS011;60413;55.658;37.498;2023-03-16T19:43:51;33.13;;;13.60;;
72422;SDS011;60413;55.658;37.498;2023-03-16T20:04:13;12.80;;;6.85;;
72422;SDS011;60413;55.658;37.498;2023-03-16T20:22:47;11.52;;;6.35;;
72422;SDS011;60413;55.658;37.498;2023-03-16T20:30:26;12.80;;;7.13;;
72422;SDS011;60413;55.658;37.498;2023-03-16T20:37:21;11.75;;;5.88;;
72422;SDS011;60413;55.658;37.498;2023-03-16T20:39:51;13.02;;;5.95;;
72422;SDS011;60413;55.658;37.498;2023-03-16T20:42:28;8.20;;;3.75;;
72422;SDS011;60413;55.658;37.498;2023-03-16T20:58:45;10.40;;;5.70;;
72422;SDS011;60413;55.658;37.498;2023-03-16T21:01:29;9.45;;;5.38;;
72422;SDS011;60413;55.658;37.498;2023-03-16T21:05:04;8.82;;;4.88;;
72422;SDS011;60413;55.658;37.498;2023-03-16T21:13:08;8.65;;;4.00;;
72422;SDS011;60413;55.658;37.498;2023-03-16T21:43:19;14.27;;;4.35;;
72422;SDS011;60413;55.658;37.498;2023-03-16T21:45:57;12.50;;;5.05;;
72422;SDS011;60413;55.658;37.498;2023-03-16T21:49:01;9.90;;;4.88;;
72422;SDS011;60413;55.658;37.498;2023-03-16T21:51:38;6.80;;;3.00;;
72422;SDS011;60413;55.658;37.498;2023-03-16T21:54:21;12.00;;;4.70;;
72422;SDS011;60413;55.658;37.498;2023-03-16T21:56:54;12.70;;;5.68;;
72422;SDS011;60413;55.658;37.498;2023-03-16T21:59:27;8.70;;;3.65;;
72422;SDS011;60413;55.658;37.498;2023-03-16T22:02:01;5.95;;;3.38;;
72422;SDS011;60413;55.658;37.498;2023-03-16T22:52:16;8.52;;;3.00;;
72422;SDS011;60413;55.658;37.498;2023-03-16T23:00:59;6.43;;;3.08;;
72422;SDS011;60413;55.658;37.498;2023-03-16T23:03:53;6.70;;;3.50;;
72422;SDS011;60413;55.658;37.498;2023-03-16T23:06:28;8.90;;;3.60;;
72422;SDS011;60413;55.658;37.498;2023-03-16T23:29:42;8.23;;;3.30;;
72422;SDS011;60413;55.658;37.498;2023-03-16T23:32:33;6.88;;;3.45;;
72422;SDS011;60413;55.658;37.498;2023-03-16T23:35:08;5.15;;;2.65;;
72422;SDS011;60413;55.658;37.498;2023-03-16T23:38:05;6.32;;;2.83;;
72422;SDS011;60413;55.658;37.498;2023-03-16T23:40:44;12.35;;;2.75;;
72422;SDS011;60413;55.658;37.498;2023-03-16T23:43:34;7.85;;;3.88;;
72422;SDS011;60413;55.658;37.498;2023-03-16T23:46:19;5.63;;;2.67;;
72422;SDS011;60413;55.658;37.498;2023-03-16T23:51:55;6.78;;;3.55;;
72422;SDS011;60413;55.658;37.498;2023-03-16T23:54:59;8.77;;;2.88;;
72422;SDS011;60413;55.658;37.498;2023-03-16T23:57:44;7.63;;;3.35;;
